sensor_id;sensor_type;location;lat;lon;timestamp;temperature;humidity
10441;DHT22;5268;49.346;9.522;2023-05-27T03:05:58;13.00;94.50
10441;DHT22;5268;49.346;9.522;2023-05-27T03:11:01;12.90;94.50
10441;DHT22;5268;49.346;9.522;2023-05-27T03:16:03;12.90;94.30
10441;DHT22;5268;49.346;9.522;2023-05-27T03:21:07;12.80;94.90
10441;DHT22;5268;49.346;9.522;2023-05-27T03:26:09;12.80;94.60
10441;DHT22;5268;49.346;9.522;2023-05-27T03:31:11;12.70;94.40
10441;DHT22;5268;49.346;9.522;2023-05-27T03:36:16;12.70;94.50
10441;DHT22;5268;49.346;9.522;2023-05-27T03:41:18;12.70;94.60
10441;DHT22;5268;49.346;9.522;2023-05-27T03:46:20;12.60;95.70
10441;DHT22;5268;49.346;9.522;2023-05-27T03:51:23;12.50;99.20
10441;DHT22;5268;49.346;9.522;2023-05-27T03:56:26;12.40;97.70
10441;DHT22;5268;49.346;9.522;2023-05-27T04:01:28;12.20;97.50
10441;DHT22;5268;49.346;9.522;2023-05-27T04:06:31;12.10;99.90
10441;DHT22;5268;49.346;9.522;2023-05-27T04:11:34;11.90;99.40
10441;DHT22;5268;49.346;9.522;2023-05-27T04:16:36;11.90;99.20
10441;DHT22;5268;49.346;9.522;2023-05-27T04:21:39;11.90;99.70
10441;DHT22;5268;49.346;9.522;2023-05-27T04:26:41;11.80;99.90
10441;DHT22;5268;49.346;9.522;2023-05-27T04:31:43;11.80;99.50
10441;DHT22;5268;49.346;9.522;2023-05-27T04:36:47;11.70;99.90
10441;DHT22;5268;49.346;9.522;2023-05-27T04:41:50;11.70;99.90
10441;DHT22;5268;49.346;9.522;2023-05-27T04:46:52;11.70;99.90
10441;DHT22;5268;49.346;9.522;2023-05-27T04:51:55;11.70;99.90
10441;DHT22;5268;49.346;9.522;2023-05-27T04:56:57;11.70;99.90
10441;DHT22;5268;49.346;9.522;2023-05-27T05:02:00;11.80;99.90
10441;DHT22;5268;49.346;9.522;2023-05-27T05:07:13;11.90;99.90
10441;DHT22;5268;49.346;9.522;2023-05-27T05:12:15;12.10;99.90
10441;DHT22;5268;49.346;9.522;2023-05-27T05:17:17;12.20;98.60
10441;DHT22;5268;49.346;9.522;2023-05-27T05:22:21;12.60;99.90
10441;DHT22;5268;49.346;9.522;2023-05-27T05:27:23;13.10;99.90
10441;DHT22;5268;49.346;9.522;2023-05-27T05:32:25;13.70;99.90
10441;DHT22;5268;49.346;9.522;2023-05-27T05:37:29;14.20;98.90
10441;DHT22;5268;49.346;9.522;2023-05-27T05:42:31;14.40;99.90
10441;DHT22;5268;49.346;9.522;2023-05-27T05:47:33;14.40;99.70
10441;DHT22;5268;49.346;9.522;2023-05-27T05:52:36;14.40;99.90
10441;DHT22;5268;49.346;9.522;2023-05-27T05:57:38;14.50;98.90
10441;DHT22;5268;49.346;9.522;2023-05-27T06:02:40;14.60;98.70
10441;DHT22;5268;49.346;9.522;2023-05-27T06:07:44;14.80;98.50
10441;DHT22;5268;49.346;9.522;2023-05-27T06:12:47;15.00;98.50
10441;DHT22;5268;49.346;9.522;2023-05-27T06:17:50;15.20;98.60
10441;DHT22;5268;49.346;9.522;2023-05-27T06:22:53;15.20;98.10
10441;DHT22;5268;49.346;9.522;2023-05-27T06:27:55;15.40;98.30
10441;DHT22;5268;49.346;9.522;2023-05-27T06:32:57;15.60;98.20
10441;DHT22;5268;49.346;9.522;2023-05-27T06:38:01;15.90;97.90
10441;DHT22;5268;49.346;9.522;2023-05-27T06:43:03;16.00;98.10
10441;DHT22;5268;49.346;9.522;2023-05-27T06:48:05;16.20;98.00
10441;DHT22;5268;49.346;9.522;2023-05-27T06:53:09;16.40;98.00
10441;DHT22;5268;49.346;9.522;2023-05-27T06:58:13;16.50;97.50
10441;DHT22;5268;49.346;9.522;2023-05-27T07:03:15;16.90;97.70
10441;DHT22;5268;49.346;9.522;2023-05-27T07:08:19;17.00;97.50
10441;DHT22;5268;49.346;9.522;2023-05-27T07:13:21;17.20;97.30
10441;DHT22;5268;49.346;9.522;2023-05-27T07:18:23;17.50;97.70
10441;DHT22;5268;49.346;9.522;2023-05-27T07:23:26;17.70;96.90
10441;DHT22;5268;49.346;9.522;2023-05-27T07:28:28;17.80;96.20
10441;DHT22;5268;49.346;9.522;2023-05-27T07:33:30;17.80;96.70
10441;DHT22;5268;49.346;9.522;2023-05-27T07:38:33;18.10;97.00
10441;DHT22;5268;49.346;9.522;2023-05-27T07:43:35;18.50;97.00
10441;DHT22;5268;49.346;9.522;2023-05-27T07:48:37;18.40;95.00
10441;DHT22;5268;49.346;9.522;2023-05-27T07:53:41;18.60;96.30
10441;DHT22;5268;49.346;9.522;2023-05-27T07:58:43;18.80;96.30
10441;DHT22;5268;49.346;9.522;2023-05-27T08:03:45;18.90;96.10
10441;DHT22;5268;49.346;9.522;2023-05-27T08:08:49;19.10;95.40
10441;DHT22;5268;49.346;9.522;2023-05-27T08:13:50;19.00;94.50
10441;DHT22;5268;49.346;9.522;2023-05-27T08:18:52;19.20;96.00
10441;DHT22;5268;49.346;9.522;2023-05-27T08:23:56;19.40;95.70
10441;DHT22;5268;49.346;9.522;2023-05-27T08:28:58;19.70;96.30
10441;DHT22;5268;49.346;9.522;2023-05-27T08:34:00;19.90;96.30
10441;DHT22;5268;49.346;9.522;2023-05-27T08:39:03;20.10;96.30
10441;DHT22;5268;49.346;9.522;2023-05-27T08:44:06;20.10;94.70
10441;DHT22;5268;49.346;9.522;2023-05-27T08:49:08;19.90;94.20
10441;DHT22;5268;49.346;9.522;2023-05-27T08:54:12;20.30;94.90
10441;DHT22;5268;49.346;9.522;2023-05-27T08:59:14;19.90;93.60
10441;DHT22;5268;49.346;9.522;2023-05-27T09:04:16;20.20;94.10
10441;DHT22;5268;49.346;9.522;2023-05-27T09:09:20;20.70;95.70
10441;DHT22;5268;49.346;9.522;2023-05-27T09:14:22;21.30;95.90
10441;DHT22;5268;49.346;9.522;2023-05-27T09:19:24;21.50;95.30
10441;DHT22;5268;49.346;9.522;2023-05-27T09:24:27;22.00;93.90
10441;DHT22;5268;49.346;9.522;2023-05-27T09:29:29;21.90;94.60
10441;DHT22;5268;49.346;9.522;2023-05-27T09:34:38;21.70;91.20
10441;DHT22;5268;49.346;9.522;2023-05-27T09:39:41;22.10;92.30
10441;DHT22;5268;49.346;9.522;2023-05-27T09:44:46;22.30;93.30
10441;DHT22;5268;49.346;9.522;2023-05-27T09:49:49;22.30;93.40
10441;DHT22;5268;49.346;9.522;2023-05-27T09:54:55;22.20;90.90
10441;DHT22;5268;49.346;9.522;2023-05-27T09:59:59;22.70;93.70
10441;DHT22;5268;49.346;9.522;2023-05-27T10:05:03;23.20;93.30
10441;DHT22;5268;49.346;9.522;2023-05-27T10:10:11;23.10;91.20
10441;DHT22;5268;49.346;9.522;2023-05-27T10:15:21;23.00;92.70
10441;DHT22;5268;49.346;9.522;2023-05-27T10:20:28;23.40;93.00
10441;DHT22;5268;49.346;9.522;2023-05-27T10:25:37;23.70;92.10
10441;DHT22;5268;49.346;9.522;2023-05-27T10:30:45;22.50;88.20
10441;DHT22;5268;49.346;9.522;2023-05-27T10:35:49;22.90;90.30
10441;DHT22;5268;49.346;9.522;2023-05-27T10:40:59;23.30;92.50
10441;DHT22;5268;49.346;9.522;2023-05-27T10:46:02;23.70;89.10
10441;DHT22;5268;49.346;9.522;2023-05-27T10:51:05;23.80;90.30
10441;DHT22;5268;49.346;9.522;2023-05-27T10:56:08;24.10;91.30
10441;DHT22;5268;49.346;9.522;2023-05-27T11:01:11;24.00;90.10
10441;DHT22;5268;49.346;9.522;2023-05-27T11:06:15;23.90;85.80
10441;DHT22;5268;49.346;9.522;2023-05-27T11:11:19;23.90;88.20
10441;DHT22;5268;49.346;9.522;2023-05-27T11:16:21;24.10;86.50
10441;DHT22;5268;49.346;9.522;2023-05-27T11:21:23;24.00;83.20
10441;DHT22;5268;49.346;9.522;2023-05-27T11:26:27;24.50;89.10
10441;DHT22;5268;49.346;9.522;2023-05-27T11:31:30;24.10;82.60
10441;DHT22;5268;49.346;9.522;2023-05-27T11:36:35;23.80;83.70
10441;DHT22;5268;49.346;9.522;2023-05-27T11:41:49;24.00;80.70
10441;DHT22;5268;49.346;9.522;2023-05-27T11:46:58;23.80;84.60
10441;DHT22;5268;49.346;9.522;2023-05-27T11:52:00;24.00;80.00
10441;DHT22;5268;49.346;9.522;2023-05-27T11:57:07;23.80;80.50
10441;DHT22;5268;49.346;9.522;2023-05-27T12:02:11;24.30;85.60
10441;DHT22;5268;49.346;9.522;2023-05-27T12:07:13;24.50;86.60
10441;DHT22;5268;49.346;9.522;2023-05-27T12:12:18;24.60;88.90
10441;DHT22;5268;49.346;9.522;2023-05-27T12:17:21;24.20;75.10
10441;DHT22;5268;49.346;9.522;2023-05-27T12:22:23;24.40;82.70
10441;DHT22;5268;49.346;9.522;2023-05-27T12:27:26;24.20;77.40
10441;DHT22;5268;49.346;9.522;2023-05-27T12:32:28;23.90;73.90
10441;DHT22;5268;49.346;9.522;2023-05-27T12:37:30;24.00;77.80
10441;DHT22;5268;49.346;9.522;2023-05-27T12:42:34;23.90;78.20
10441;DHT22;5268;49.346;9.522;2023-05-27T12:47:36;24.10;78.50
10441;DHT22;5268;49.346;9.522;2023-05-27T12:52:38;24.50;84.50
10441;DHT22;5268;49.346;9.522;2023-05-27T12:57:48;24.50;84.30
10441;DHT22;5268;49.346;9.522;2023-05-27T13:02:50;24.90;84.10
10441;DHT22;5268;49.346;9.522;2023-05-27T13:07:53;25.00;74.60
10441;DHT22;5268;49.346;9.522;2023-05-27T13:12:59;25.20;82.70
10441;DHT22;5268;49.346;9.522;2023-05-27T13:18:01;24.70;70.80
10441;DHT22;5268;49.346;9.522;2023-05-27T13:23:05;24.10;70.50
10441;DHT22;5268;49.346;9.522;2023-05-27T13:28:09;24.20;77.10
10441;DHT22;5268;49.346;9.522;2023-05-27T13:33:11;24.50;76.70
10441;DHT22;5268;49.346;9.522;2023-05-27T13:38:13;24.50;74.60
10441;DHT22;5268;49.346;9.522;2023-05-27T13:43:18;24.60;77.20
10441;DHT22;5268;49.346;9.522;2023-05-27T13:48:20;24.60;73.10
10441;DHT22;5268;49.346;9.522;2023-05-27T13:53:22;24.50;69.20
10441;DHT22;5268;49.346;9.522;2023-05-27T13:58:25;24.10;75.30
10441;DHT22;5268;49.346;9.522;2023-05-27T14:03:29;23.90;70.30
10441;DHT22;5268;49.346;9.522;2023-05-27T14:08:31;23.90;72.20
10441;DHT22;5268;49.346;9.522;2023-05-27T14:13:34;24.20;72.80
10441;DHT22;5268;49.346;9.522;2023-05-27T14:18:36;24.40;77.40
10441;DHT22;5268;49.346;9.522;2023-05-27T14:23:38;24.70;78.00
10441;DHT22;5268;49.346;9.522;2023-05-27T14:28:41;24.70;76.20
10441;DHT22;5268;49.346;9.522;2023-05-27T14:33:44;24.60;73.10
10441;DHT22;5268;49.346;9.522;2023-05-27T14:38:46;24.30;69.60
10441;DHT22;5268;49.346;9.522;2023-05-27T14:43:49;24.30;70.80
10441;DHT22;5268;49.346;9.522;2023-05-27T14:48:53;24.40;71.20
10441;DHT22;5268;49.346;9.522;2023-05-27T14:53:54;24.40;75.80
10441;DHT22;5268;49.346;9.522;2023-05-27T14:58:58;24.40;74.00
10441;DHT22;5268;49.346;9.522;2023-05-27T15:04:00;24.60;69.80
10441;DHT22;5268;49.346;9.522;2023-05-27T15:09:02;24.30;72.90
10441;DHT22;5268;49.346;9.522;2023-05-27T15:14:05;24.60;77.50
10441;DHT22;5268;49.346;9.522;2023-05-27T15:19:08;24.70;78.40
10441;DHT22;5268;49.346;9.522;2023-05-27T15:24:10;24.90;79.20
10441;DHT22;5268;49.346;9.522;2023-05-27T15:29:13;25.00;79.20
10441;DHT22;5268;49.346;9.522;2023-05-27T15:34:15;25.10;74.60
10441;DHT22;5268;49.346;9.522;2023-05-27T15:39:17;25.10;78.60
10441;DHT22;5268;49.346;9.522;2023-05-27T15:44:22;25.00;77.20
10441;DHT22;5268;49.346;9.522;2023-05-27T15:49:24;24.80;77.70
10441;DHT22;5268;49.346;9.522;2023-05-27T15:54:26;24.80;77.20
10441;DHT22;5268;49.346;9.522;2023-05-27T15:59:29;24.90;79.20
10441;DHT22;5268;49.346;9.522;2023-05-27T16:04:31;24.90;78.00
10441;DHT22;5268;49.346;9.522;2023-05-27T16:09:33;24.60;74.60
10441;DHT22;5268;49.346;9.522;2023-05-27T16:14:37;24.70;77.70
10441;DHT22;5268;49.346;9.522;2023-05-27T16:19:38;24.70;77.70
10441;DHT22;5268;49.346;9.522;2023-05-27T16:24:40;24.60;71.90
10441;DHT22;5268;49.346;9.522;2023-05-27T16:29:44;24.70;77.90
10441;DHT22;5268;49.346;9.522;2023-05-27T16:34:46;24.50;74.40
10441;DHT22;5268;49.346;9.522;2023-05-27T16:39:48;24.50;78.40
10441;DHT22;5268;49.346;9.522;2023-05-27T16:44:52;24.50;79.10
10441;DHT22;5268;49.346;9.522;2023-05-27T16:49:54;24.50;78.40
10441;DHT22;5268;49.346;9.522;2023-05-27T16:54:55;24.50;75.10
10441;DHT22;5268;49.346;9.522;2023-05-27T16:59:59;24.20;71.00
10441;DHT22;5268;49.346;9.522;2023-05-27T17:05:01;24.20;78.50
10441;DHT22;5268;49.346;9.522;2023-05-27T17:10:03;24.20;77.20
10441;DHT22;5268;49.346;9.522;2023-05-27T17:15:08;24.20;75.80
10441;DHT22;5268;49.346;9.522;2023-05-27T17:20:11;24.10;79.20
10441;DHT22;5268;49.346;9.522;2023-05-27T17:25:19;24.10;79.80
10441;DHT22;5268;49.346;9.522;2023-05-27T17:30:22;24.10;80.80
10441;DHT22;5268;49.346;9.522;2023-05-27T17:35:24;24.10;80.10
10441;DHT22;5268;49.346;9.522;2023-05-27T17:40:26;24.10;79.70
10441;DHT22;5268;49.346;9.522;2023-05-27T17:45:29;24.00;80.90
10441;DHT22;5268;49.346;9.522;2023-05-27T17:50:31;23.90;79.70
10441;DHT22;5268;49.346;9.522;2023-05-27T17:55:33;23.80;77.60
10441;DHT22;5268;49.346;9.522;2023-05-27T18:00:37;23.80;80.60
10441;DHT22;5268;49.346;9.522;2023-05-27T18:05:39;23.70;81.00
10441;DHT22;5268;49.346;9.522;2023-05-27T18:10:41;23.60;80.00
10441;DHT22;5268;49.346;9.522;2023-05-27T18:15:45;23.60;82.00
10441;DHT22;5268;49.346;9.522;2023-05-27T18:20:47;23.50;81.40
10441;DHT22;5268;49.346;9.522;2023-05-27T18:25:49;23.50;82.20
10441;DHT22;5268;49.346;9.522;2023-05-27T18:30:53;23.30;82.10
10441;DHT22;5268;49.346;9.522;2023-05-27T18:35:55;23.10;82.30
10441;DHT22;5268;49.346;9.522;2023-05-27T18:40:57;23.00;82.70
10441;DHT22;5268;49.346;9.522;2023-05-27T18:46:00;22.80;83.00
10441;DHT22;5268;49.346;9.522;2023-05-27T18:51:03;22.70;83.20
10441;DHT22;5268;49.346;9.522;2023-05-27T18:56:06;22.50;83.10
10441;DHT22;5268;49.346;9.522;2023-05-27T19:01:09;22.30;83.10
10441;DHT22;5268;49.346;9.522;2023-05-27T19:06:11;22.10;83.10
10441;DHT22;5268;49.346;9.522;2023-05-27T19:11:13;21.80;83.10
10441;DHT22;5268;49.346;9.522;2023-05-27T19:16:17;21.60;83.00
10441;DHT22;5268;49.346;9.522;2023-05-27T19:21:19;21.40;83.00
10441;DHT22;5268;49.346;9.522;2023-05-27T19:26:22;21.20;83.10
10441;DHT22;5268;49.346;9.522;2023-05-27T19:31:27;21.10;83.20
10441;DHT22;5268;49.346;9.522;2023-05-27T19:36:29;20.90;83.50
10441;DHT22;5268;49.346;9.522;2023-05-27T19:41:31;20.70;83.60
10441;DHT22;5268;49.346;9.522;2023-05-27T19:46:35;20.60;83.70
10441;DHT22;5268;49.346;9.522;2023-05-27T19:51:37;20.40;83.60
10441;DHT22;5268;49.346;9.522;2023-05-27T19:56:39;20.20;84.50
10441;DHT22;5268;49.346;9.522;2023-05-27T20:01:42;20.10;83.90
10441;DHT22;5268;49.346;9.522;2023-05-27T20:06:44;20.00;84.00
10441;DHT22;5268;49.346;9.522;2023-05-27T20:11:46;19.80;85.10
10441;DHT22;5268;49.346;9.522;2023-05-27T20:16:49;19.50;84.80
10441;DHT22;5268;49.346;9.522;2023-05-27T20:21:51;19.40;85.10
10441;DHT22;5268;49.346;9.522;2023-05-27T20:26:54;19.10;85.70
10441;DHT22;5268;49.346;9.522;2023-05-27T20:31:57;19.00;85.80
10441;DHT22;5268;49.346;9.522;2023-05-27T20:36:59;18.80;86.10
10441;DHT22;5268;49.346;9.522;2023-05-27T20:42:01;18.60;86.20
10441;DHT22;5268;49.346;9.522;2023-05-27T20:47:05;18.40;86.40
10441;DHT22;5268;49.346;9.522;2023-05-27T20:52:07;18.20;86.80
10441;DHT22;5268;49.346;9.522;2023-05-27T20:57:09;18.00;86.80
10441;DHT22;5268;49.346;9.522;2023-05-27T21:02:13;17.90;86.80
10441;DHT22;5268;49.346;9.522;2023-05-27T21:07:15;17.80;86.90
10441;DHT22;5268;49.346;9.522;2023-05-27T21:12:17;17.60;87.40
10441;DHT22;5268;49.346;9.522;2023-05-27T21:17:21;17.40;86.80
10441;DHT22;5268;49.346;9.522;2023-05-27T21:22:23;17.20;86.80
10441;DHT22;5268;49.346;9.522;2023-05-27T21:27:25;17.10;87.50
10441;DHT22;5268;49.346;9.522;2023-05-27T21:32:28;17.00;86.70
10441;DHT22;5268;49.346;9.522;2023-05-27T21:37:30;16.80;89.30
10441;DHT22;5268;49.346;9.522;2023-05-27T21:42:33;16.70;86.80
10441;DHT22;5268;49.346;9.522;2023-05-27T21:47:36;16.50;87.40
10441;DHT22;5268;49.346;9.522;2023-05-27T21:52:38;16.50;88.60
